Авиационная погода в Абакане

Регион: 
Погода METAR: 
UNAA 290100Z 20007MPS CAVOK 02/M05 Q1020 R20/CLRD65 NOSIG RMK QFE743
Время наблюдения
2020-10-29T01:00:00Z
Температура C
2.0
Точка росы
-5.0
Направление ветра
200
Скорость ветра (узлы)
14
Метео видимость
6.21
Явления погоды
Условия полета
VFR
Аэропорт подробнее: